Portada
METAR-TAF:

METAR-TAF

Aeroports :

Touho, Nova Caledònia

latitud: 20-47-25S, longitud: 165-15-34E, altitud: 3 m

METAR: manca

Hora: 18:12 (07:12 UTC)

Pronòstic

L'informe es va fer fa 14 hores i 12 minuts, a les 17:00 UTC
Pronòstic vàlid del 30 a les 18 UTC al 31 a les 18 UTC
Vent 8 kt del Oest/Sud-Oest
Visibilitat 10 km o més
Cel ennuvolat a una alçada de 3800 ft
Probabilitat 40% :
Temporalment
l' 30 a les 18 UTC al 30 a les 20 UTC
Escasses núvols a una alçada de 1800 ft, Cumulus congestus.
xàfecs de pluja
Evolucionant progressivament
l' 31 a les 01 UTC al 31 a les 03 UTC
Vent 10 kt del Est/Sud-Est
Temporalment
l' 31 a les 08 UTC al 31 a les 18 UTC
Visibilitat: 4000 m
Escasses núvols a una alçada de 2000 ft, Cumulus congestus.
xàfecs de pluja

TAF: NWWU 301700Z 3018/3118 24008KT 9999 BKN038 PROB40 TEMPO 3018/3020 SHRA FEW018TCU BECMG 3101/3103 11010KT TEMPO 3108/3118 4000 SHRA FEW020TCU

Observacions i pronòstics meteorològics de més de 4000 aeroports (METAR i TAF).

Les estacions disponibles són els punts grocs i vermells al mapa.

Posi el ratolí al punt desitjat per veure el nom de l'estació.

Feu clic per veure les observacions i els pronòstics meteorològics.

Per canviar el mapa: feu clic els botons verds amb una creu de color negre per apropar; al botó verd amb un guió per allunyar la imatge; o en les fletxes verdes per a mapes adjacents.


METAR-TAF: